Benwood, West Virginia
Current Conditions -  °F | °C
As of 12:53 PM on Saturday 25 Oct 2014 (Local Time) from KHLG Reporting Station
Clear Clear  
Wind Chill: 61°   Ceiling: Unl
Heat Index: 61°   Visibility: 10mi
Dew Point: 48°   Wind: 12mph
Humidity: 62%   Direction: 240°WSW
Pressure: 29.9"   Gusts: NA
Location:  40.02°N, 80.73°W
Report Text: KHLG 251653Z 24010KT 10SM CLR 16/09 A2990 RMK AO2 SLP126 T01610089
Loading
Personal Weather Stations






























Interactive Weather Map
Tropical Storm Tracking
New forecast layout! Learn more

10-Day Weather Forecast

Advertisements
Track Severe Weather on mobile